createdAt,value
2022-09-21T00:00:20.559Z,14.67
2022-09-21T00:02:50.450Z,14.64
2022-09-21T00:05:21.589Z,14.60
2022-09-21T00:07:51.765Z,14.71
2022-09-21T00:10:22.694Z,14.72
2022-09-21T00:12:52.475Z,14.76
2022-09-21T00:15:22.258Z,14.78
2022-09-21T00:17:54.825Z,14.76
2022-09-21T00:20:27.961Z,14.50
2022-09-21T00:22:58.023Z,14.49
2022-09-21T00:25:28.257Z,14.54
2022-09-21T00:27:58.419Z,14.44
2022-09-21T00:30:28.684Z,14.32
2022-09-21T00:32:58.729Z,14.29
2022-09-21T00:35:30.018Z,14.26
2022-09-21T00:38:02.803Z,14.36
2022-09-21T00:40:33.343Z,14.13
2022-09-21T00:43:14.095Z,14.30
2022-09-21T00:45:45.886Z,14.19
2022-09-21T00:48:16.476Z,14.17
2022-09-21T00:50:54.898Z,14.26
2022-09-21T00:53:24.776Z,14.31
2022-09-21T00:55:58.443Z,14.32
2022-09-21T00:58:32.590Z,14.35
2022-09-21T01:01:02.559Z,14.15
2022-09-21T01:03:33.527Z,14.18
2022-09-21T01:06:04.995Z,14.08
2022-09-21T01:08:35.294Z,14.07
2022-09-21T01:11:25.251Z,14.17
2022-09-21T01:14:15.264Z,14.14
2022-09-21T01:16:52.850Z,14.22
2022-09-21T01:19:47.707Z,14.17
2022-09-21T01:22:28.010Z,14.20
2022-09-21T01:25:13.622Z,14.05
2022-09-21T01:27:55.069Z,14.19
2022-09-21T01:30:27.049Z,14.17
2022-09-21T01:33:04.186Z,14.15
2022-09-21T01:35:38.918Z,13.89
2022-09-21T01:38:13.832Z,14.19
2022-09-21T01:40:47.289Z,14.08
2022-09-21T01:43:20.863Z,14.17
2022-09-21T01:45:55.630Z,14.11
2022-09-21T01:48:26.962Z,14.17
2022-09-21T01:50:59.079Z,14.16
2022-09-21T01:53:34.636Z,14.07
2022-09-21T01:56:11.902Z,13.99
2022-09-21T01:58:47.152Z,14.06
2022-09-21T02:01:22.258Z,14.17
2022-09-21T02:03:56.443Z,14.07
2022-09-21T02:06:27.160Z,14.18
2022-09-21T02:08:58.988Z,14.08
2022-09-21T02:11:29.036Z,14.11
2022-09-21T02:13:59.563Z,14.18
2022-09-21T02:16:38.879Z,14.16
2022-09-21T02:19:13.971Z,14.08
2022-09-21T02:21:55.672Z,14.05
2022-09-21T02:24:35.068Z,14.13
2022-09-21T02:27:07.678Z,14.07
2022-09-21T02:29:48.362Z,14.01
2022-09-21T02:32:30.401Z,13.99
2022-09-21T02:35:04.982Z,13.99
2022-09-21T02:37:38.743Z,13.97
2022-09-21T02:40:23.890Z,14.03
2022-09-21T02:42:58.030Z,13.86
2022-09-21T02:45:34.355Z,13.81
2022-09-21T02:48:10.728Z,13.72
2022-09-21T02:50:45.623Z,13.74
2022-09-21T02:53:20.108Z,13.75
2022-09-21T02:55:56.190Z,13.62
2022-09-21T02:58:29.528Z,13.70
2022-09-21T03:01:00.622Z,13.64
2022-09-21T03:03:32.049Z,13.67
2022-09-21T03:06:02.880Z,13.56
2022-09-21T03:08:32.750Z,13.66
2022-09-21T03:11:02.922Z,13.76
2022-09-21T03:13:33.262Z,13.62
2022-09-21T03:16:05.639Z,13.69
2022-09-21T03:18:37.404Z,13.62
2022-09-21T03:21:08.161Z,13.62
2022-09-21T03:23:38.052Z,13.56
2022-09-21T03:26:08.535Z,13.48
2022-09-21T03:28:38.607Z,13.40
2022-09-21T03:31:08.649Z,13.49
2022-09-21T03:33:40.122Z,13.47
2022-09-21T03:36:10.887Z,13.50
2022-09-21T03:38:42.724Z,13.52
2022-09-21T03:41:13.597Z,13.62
2022-09-21T03:43:44.842Z,13.56
2022-09-21T03:46:14.752Z,13.58
2022-09-21T03:48:47.586Z,13.58
2022-09-21T03:51:17.720Z,13.75
2022-09-21T03:53:48.957Z,13.80
2022-09-21T03:56:18.626Z,13.81
2022-09-21T03:58:48.440Z,13.79
2022-09-21T04:01:18.513Z,13.76
2022-09-21T04:03:50.026Z,13.93
2022-09-21T04:06:20.218Z,13.74
2022-09-21T04:08:50.134Z,13.72
2022-09-21T04:11:23.096Z,13.86
2022-09-21T04:13:57.414Z,13.90
2022-09-21T04:16:28.225Z,14.02
2022-09-21T04:18:59.525Z,14.13
2022-09-21T04:21:29.983Z,13.99
2022-09-21T04:24:00.282Z,13.83
2022-09-21T04:26:31.587Z,13.84
2022-09-21T04:29:02.109Z,13.82
2022-09-21T04:31:33.338Z,13.76
2022-09-21T04:34:04.741Z,13.93
2022-09-21T04:36:36.813Z,13.87
2022-09-21T04:39:07.460Z,13.74
2022-09-21T04:41:37.431Z,13.76
2022-09-21T04:44:07.368Z,13.84
2022-09-21T04:46:37.469Z,13.67
2022-09-21T04:49:08.872Z,13.51
2022-09-21T04:51:39.095Z,13.54
2022-09-21T04:54:09.032Z,13.60
2022-09-21T04:56:38.912Z,13.49
2022-09-21T04:59:08.779Z,13.53
2022-09-21T05:01:38.733Z,13.58
2022-09-21T05:04:10.325Z,13.61
2022-09-21T05:06:40.136Z,13.62
2022-09-21T05:09:27.459Z,13.76
2022-09-21T05:11:57.367Z,13.70
2022-09-21T05:14:27.711Z,13.64
2022-09-21T05:16:57.561Z,13.70
2022-09-21T05:19:29.683Z,13.82
2022-09-21T05:21:59.376Z,13.82
2022-09-21T05:24:29.520Z,13.83
2022-09-21T05:27:00.828Z,13.93
2022-09-21T05:29:31.319Z,13.94
2022-09-21T05:32:07.769Z,13.91
2022-09-21T05:34:52.278Z,13.86
2022-09-21T05:37:42.103Z,14.00
2022-09-21T05:40:14.497Z,14.06
2022-09-21T05:42:45.585Z,14.17
2022-09-21T05:45:18.037Z,14.15
2022-09-21T05:47:55.413Z,14.15
2022-09-21T05:50:49.659Z,14.23
2022-09-21T05:53:43.766Z,14.22
2022-09-21T05:56:25.500Z,14.40
2022-09-21T05:59:00.687Z,14.42
2022-09-21T06:01:42.389Z,14.42
2022-09-21T06:04:13.672Z,14.49
2022-09-21T06:06:45.783Z,14.52
2022-09-21T06:09:15.673Z,14.54
2022-09-21T06:11:45.496Z,14.40
2022-09-21T06:14:15.321Z,14.53
2022-09-21T06:16:45.162Z,14.68
2022-09-21T06:19:16.354Z,14.76
2022-09-21T06:21:48.159Z,14.84
2022-09-21T06:24:17.868Z,14.80
2022-09-21T06:26:47.690Z,14.92
2022-09-21T06:29:18.818Z,14.94
2022-09-21T06:31:48.616Z,15.03
2022-09-21T06:34:18.887Z,14.91
2022-09-21T06:36:50.004Z,15.03
2022-09-21T06:39:20.014Z,15.01
2022-09-21T06:41:49.960Z,15.11
2022-09-21T06:44:19.707Z,15.07
2022-09-21T06:46:49.678Z,15.19
2022-09-21T06:49:19.681Z,14.97
2022-09-21T06:51:51.072Z,14.97
2022-09-21T06:54:20.930Z,15.05
2022-09-21T06:56:50.791Z,15.05
2022-09-21T06:59:20.569Z,15.03
2022-09-21T07:01:50.426Z,14.87
2022-09-21T07:05:15.382Z,15.08
2022-09-21T07:08:05.393Z,15.13
2022-09-21T07:10:35.255Z,15.00
2022-09-21T07:13:07.095Z,15.00
2022-09-21T07:15:36.949Z,15.10
2022-09-21T07:18:13.008Z,15.11
2022-09-21T07:20:44.437Z,15.28
2022-09-21T07:23:17.392Z,15.28
2022-09-21T07:25:50.574Z,15.31
2022-09-21T07:28:20.982Z,15.41
2022-09-21T07:30:51.037Z,15.52
2022-09-21T07:33:20.873Z,15.43
2022-09-21T07:35:52.941Z,15.44
2022-09-21T07:38:24.649Z,15.60
2022-09-21T07:40:54.664Z,15.58
2022-09-21T07:43:24.681Z,15.67
2022-09-21T07:45:55.035Z,15.81
2022-09-21T07:48:24.896Z,15.73
2022-09-21T07:50:54.901Z,15.91
2022-09-21T07:53:26.647Z,15.96
2022-09-21T07:56:02.184Z,15.99
2022-09-21T07:58:49.753Z,16.08
2022-09-21T08:01:19.829Z,16.14
2022-09-21T08:03:50.668Z,16.29
2022-09-21T08:06:21.281Z,16.37
2022-09-21T08:08:57.735Z,16.60
2022-09-21T08:11:30.685Z,16.60
2022-09-21T08:14:02.426Z,16.69
2022-09-21T08:16:33.999Z,16.73
2022-09-21T08:19:05.448Z,16.85
2022-09-21T08:21:35.646Z,16.92
2022-09-21T08:24:07.658Z,17.13
2022-09-21T08:26:37.835Z,17.03
2022-09-21T08:29:07.581Z,16.94
2022-09-21T08:31:37.590Z,16.91
2022-09-21T08:34:07.550Z,16.93
2022-09-21T08:36:37.556Z,16.87
2022-09-21T08:39:09.497Z,16.82
2022-09-21T08:41:55.770Z,16.79
2022-09-21T08:44:30.620Z,16.86
2022-09-21T08:47:07.307Z,17.01
2022-09-21T08:49:39.572Z,17.42
2022-09-21T08:52:16.607Z,17.71
2022-09-21T08:54:56.375Z,17.80
2022-09-21T08:57:30.617Z,17.82
2022-09-21T09:00:03.339Z,18.00
2022-09-21T09:02:44.364Z,18.01
2022-09-21T09:05:29.386Z,17.90
2022-09-21T09:08:21.487Z,17.88
2022-09-21T09:11:06.143Z,17.71
2022-09-21T09:14:05.320Z,17.77
2022-09-21T09:16:42.067Z,17.78
2022-09-21T09:19:24.034Z,17.76
2022-09-21T09:21:55.269Z,17.72
2022-09-21T09:24:34.178Z,17.66
2022-09-21T09:27:11.655Z,17.89
2022-09-21T09:29:50.299Z,18.00
2022-09-21T09:32:22.606Z,18.06
2022-09-21T09:34:56.967Z,17.84
2022-09-21T09:37:34.945Z,17.71
2022-09-21T09:40:08.738Z,17.74
2022-09-21T09:43:01.312Z,17.84
2022-09-21T09:45:47.662Z,17.97
2022-09-21T09:48:39.835Z,18.01
2022-09-21T09:51:12.560Z,17.98
2022-09-21T09:53:42.497Z,17.89
2022-09-21T09:56:14.852Z,17.89
2022-09-21T09:58:53.674Z,17.95
2022-09-21T10:01:43.194Z,17.84
2022-09-21T10:04:15.419Z,17.83
2022-09-21T10:06:47.120Z,17.89
2022-09-21T10:09:24.289Z,17.92
2022-09-21T10:11:56.538Z,17.77
2022-09-21T10:14:30.765Z,17.77
2022-09-21T10:17:06.917Z,17.76
2022-09-21T10:19:38.206Z,17.79
2022-09-21T10:22:08.104Z,17.89
2022-09-21T10:24:40.750Z,18.00
2022-09-21T10:27:15.444Z,17.99
2022-09-21T10:29:48.091Z,18.00
2022-09-21T10:32:23.654Z,17.98
2022-09-21T10:35:19.246Z,18.15
2022-09-21T10:37:53.662Z,18.05
2022-09-21T10:40:26.770Z,18.17
2022-09-21T10:42:59.096Z,18.08
2022-09-21T10:45:31.708Z,17.99
2022-09-21T10:48:11.002Z,18.07
2022-09-21T10:50:42.723Z,18.22
2022-09-21T10:53:20.944Z,18.24
2022-09-21T10:56:15.577Z,18.31
2022-09-21T10:59:20.151Z,18.31
2022-09-21T11:01:53.791Z,18.19
2022-09-21T11:04:32.156Z,18.36
2022-09-21T11:07:10.295Z,18.40
2022-09-21T11:09:46.787Z,18.53
2022-09-21T11:12:34.410Z,18.47
2022-09-21T11:15:16.887Z,18.21
2022-09-21T11:17:53.384Z,18.49
2022-09-21T11:20:29.315Z,18.46
2022-09-21T11:23:06.076Z,18.36
2022-09-21T11:25:44.348Z,18.53
2022-09-21T11:28:20.648Z,18.44
2022-09-21T11:31:25.827Z,18.52
2022-09-21T11:34:16.564Z,18.58
2022-09-21T11:36:57.409Z,18.62
2022-09-21T11:39:39.629Z,18.64
2022-09-21T11:42:23.225Z,18.51
2022-09-21T11:44:56.392Z,18.61
2022-09-21T11:48:00.169Z,18.65
2022-09-21T11:50:43.697Z,18.32
2022-09-21T11:53:38.168Z,18.61
2022-09-21T11:56:49.233Z,18.77
2022-09-21T11:59:35.248Z,18.99
2022-09-21T12:02:31.526Z,19.09
2022-09-21T12:05:07.959Z,18.94
2022-09-21T12:08:04.707Z,18.89
2022-09-21T12:10:41.365Z,18.81
2022-09-21T12:13:22.671Z,19.03
2022-09-21T12:16:00.008Z,19.09
2022-09-21T12:18:43.801Z,19.18
2022-09-21T12:21:20.906Z,19.23
2022-09-21T12:23:55.211Z,19.12
2022-09-21T12:26:29.190Z,19.20
2022-09-21T12:29:03.510Z,19.31
2022-09-21T12:31:40.788Z,19.31
2022-09-21T12:34:17.135Z,19.32
2022-09-21T12:36:56.702Z,19.36
2022-09-21T12:39:32.563Z,19.37
2022-09-21T12:42:08.788Z,19.36
2022-09-21T12:44:53.007Z,19.30
2022-09-21T12:47:27.282Z,19.13
2022-09-21T12:50:02.915Z,19.10
2022-09-21T12:52:34.997Z,19.20
2022-09-21T12:55:32.270Z,19.20
2022-09-21T12:58:15.576Z,19.13
2022-09-21T13:00:53.931Z,19.12
2022-09-21T13:03:32.048Z,19.11
2022-09-21T13:06:35.095Z,19.11
2022-09-21T13:09:09.971Z,19.14
2022-09-21T13:12:00.291Z,18.92
2022-09-21T13:14:34.782Z,18.81
2022-09-21T13:17:06.082Z,18.75
2022-09-21T13:19:36.875Z,18.63
2022-09-21T13:22:20.691Z,18.61
2022-09-21T13:25:03.083Z,18.53
2022-09-21T13:28:01.429Z,18.47
2022-09-21T13:30:40.540Z,18.40
2022-09-21T13:33:32.344Z,18.18
2022-09-21T13:36:30.141Z,18.12
2022-09-21T13:39:21.175Z,18.17
2022-09-21T13:42:02.901Z,18.02
2022-09-21T13:44:42.444Z,17.79
2022-09-21T13:47:12.504Z,17.86
2022-09-21T13:49:50.904Z,17.81
2022-09-21T13:52:30.083Z,17.80
2022-09-21T13:55:02.436Z,17.75
2022-09-21T13:57:38.015Z,17.66
2022-09-21T14:00:33.403Z,17.55
2022-09-21T14:03:07.714Z,17.54
2022-09-21T14:05:42.690Z,17.34
2022-09-21T14:08:24.374Z,16.93
2022-09-21T14:10:59.213Z,16.90
2022-09-21T14:13:35.839Z,17.04
2022-09-21T14:16:45.574Z,16.98
2022-09-21T14:19:51.203Z,16.81
2022-09-21T14:22:42.718Z,16.62
2022-09-21T14:25:51.138Z,16.76
2022-09-21T14:28:35.196Z,16.85
2022-09-21T14:31:09.377Z,16.68
2022-09-21T14:33:47.752Z,16.68
2022-09-21T14:36:22.498Z,16.69
2022-09-21T14:39:00.504Z,16.71
2022-09-21T14:41:34.553Z,16.66
2022-09-21T14:44:04.646Z,16.67
2022-09-21T14:46:51.474Z,16.64
2022-09-21T14:49:34.906Z,16.56
2022-09-21T14:52:22.236Z,16.66
2022-09-21T14:55:03.277Z,16.68
2022-09-21T14:57:48.476Z,16.61
2022-09-21T15:00:23.435Z,16.62
2022-09-21T15:03:25.925Z,16.67
2022-09-21T15:06:22.278Z,16.57
2022-09-21T15:09:28.228Z,16.47
2022-09-21T15:12:07.259Z,16.51
2022-09-21T15:14:42.491Z,16.46
2022-09-21T15:17:27.292Z,16.11
2022-09-21T15:20:00.833Z,15.85
2022-09-21T15:22:32.009Z,15.04
2022-09-21T15:25:06.025Z,14.75
2022-09-21T15:27:37.858Z,14.34
2022-09-21T15:30:19.436Z,14.29
2022-09-21T15:32:54.228Z,14.15
2022-09-21T15:35:27.748Z,13.74
2022-09-21T15:38:00.054Z,14.09
2022-09-21T15:40:33.928Z,14.07
2022-09-21T15:43:06.724Z,14.00
2022-09-21T15:45:51.781Z,13.82
2022-09-21T15:48:22.230Z,13.79
2022-09-21T15:50:57.944Z,13.86
2022-09-21T15:53:31.943Z,13.86
2022-09-21T15:56:03.037Z,14.17
2022-09-21T15:58:37.305Z,14.13
2022-09-21T16:01:12.648Z,13.91
2022-09-21T16:03:45.193Z,14.02
2022-09-21T16:06:28.728Z,14.29
2022-09-21T16:08:58.765Z,14.32
2022-09-21T16:11:37.837Z,14.29
2022-09-21T16:14:30.406Z,14.40
2022-09-21T16:17:26.378Z,14.47
2022-09-21T16:20:16.065Z,13.86
2022-09-21T16:22:48.098Z,14.09
2022-09-21T16:25:25.964Z,14.37
2022-09-21T16:27:58.671Z,14.44
2022-09-21T16:30:51.165Z,14.41
2022-09-21T16:33:36.667Z,14.27
2022-09-21T16:36:31.724Z,14.37
2022-09-21T16:39:06.137Z,14.49
2022-09-21T16:41:39.924Z,14.38
2022-09-21T16:44:16.305Z,14.23
2022-09-21T16:46:49.193Z,14.31
2022-09-21T16:49:21.824Z,14.24
2022-09-21T16:51:52.193Z,14.36
2022-09-21T16:54:25.296Z,14.25
2022-09-21T16:56:57.414Z,14.30
2022-09-21T16:59:27.966Z,14.30
2022-09-21T17:02:00.672Z,14.21
2022-09-21T17:04:32.789Z,14.22
2022-09-21T17:07:05.046Z,14.22
2022-09-21T17:09:38.377Z,14.18
2022-09-21T17:12:11.162Z,14.13
2022-09-21T17:14:46.703Z,13.98
2022-09-21T17:17:21.377Z,14.01
2022-09-21T17:19:54.191Z,14.02
2022-09-21T17:22:25.523Z,14.03
2022-09-21T17:24:55.933Z,14.00
2022-09-21T17:27:32.143Z,13.83
2022-09-21T17:30:03.560Z,13.96
2022-09-21T17:32:38.533Z,13.88
2022-09-21T17:35:17.012Z,13.81
2022-09-21T17:37:47.251Z,13.76
2022-09-21T17:40:18.168Z,13.74
2022-09-21T17:42:48.672Z,13.72
2022-09-21T17:45:27.065Z,13.62
2022-09-21T17:47:59.027Z,13.70
2022-09-21T17:50:29.647Z,13.67
2022-09-21T17:53:17.548Z,13.53
2022-09-21T17:55:54.519Z,13.56
2022-09-21T17:58:42.860Z,13.54
2022-09-21T18:01:23.668Z,13.64
2022-09-21T18:03:55.662Z,13.61
2022-09-21T18:06:26.923Z,13.56
2022-09-21T18:08:57.921Z,13.64
2022-09-21T18:12:04.569Z,13.66
2022-09-21T18:14:45.747Z,13.60
2022-09-21T18:17:29.613Z,13.52
2022-09-21T18:20:14.156Z,13.45
2022-09-21T18:22:55.215Z,13.55
2022-09-21T18:25:30.672Z,13.67
2022-09-21T18:28:07.919Z,13.60
2022-09-21T18:30:41.482Z,13.55
2022-09-21T18:33:21.719Z,13.42
2022-09-21T18:36:03.848Z,13.62
2022-09-21T18:38:41.498Z,13.70
2022-09-21T18:41:19.391Z,13.71
2022-09-21T18:44:04.689Z,13.49
2022-09-21T18:46:48.961Z,13.51
2022-09-21T18:49:23.727Z,13.51
2022-09-21T18:52:00.788Z,13.57
2022-09-21T18:54:31.673Z,13.53
2022-09-21T18:57:02.009Z,13.63
2022-09-21T18:59:32.323Z,13.55
2022-09-21T19:02:03.001Z,13.45
2022-09-21T19:04:34.240Z,13.43
2022-09-21T19:07:13.778Z,13.30
2022-09-21T19:09:52.557Z,13.24
2022-09-21T19:12:32.658Z,13.17
2022-09-21T19:15:17.121Z,13.31
2022-09-21T19:18:01.606Z,12.99
2022-09-21T19:20:58.013Z,13.20
2022-09-21T19:23:41.841Z,13.19
2022-09-21T19:26:23.298Z,13.18
2022-09-21T19:29:10.374Z,13.23
2022-09-21T19:31:40.618Z,13.34
2022-09-21T19:34:14.925Z,13.21
2022-09-21T19:36:47.389Z,13.37
2022-09-21T19:39:19.828Z,13.39
2022-09-21T19:42:03.322Z,13.39
2022-09-21T19:44:50.043Z,13.37
2022-09-21T19:47:29.331Z,13.53
2022-09-21T19:50:16.641Z,13.50
2022-09-21T19:52:48.525Z,13.44
2022-09-21T19:55:47.646Z,13.43
2022-09-21T19:58:35.531Z,13.36
2022-09-21T20:01:05.784Z,13.42
2022-09-21T20:03:40.611Z,13.38
2022-09-21T20:06:18.024Z,13.17
2022-09-21T20:08:53.912Z,12.97
2022-09-21T20:11:35.871Z,13.05
2022-09-21T20:14:19.235Z,13.09
2022-09-21T20:16:51.851Z,13.05
2022-09-21T20:19:35.187Z,12.98
2022-09-21T20:22:13.299Z,12.98
2022-09-21T20:24:52.180Z,12.97
2022-09-21T20:27:35.081Z,12.94
2022-09-21T20:30:06.953Z,12.91
2022-09-21T20:32:38.411Z,12.87
2022-09-21T20:35:16.044Z,12.86
2022-09-21T20:37:46.730Z,12.79
2022-09-21T20:40:17.314Z,12.71
2022-09-21T20:42:48.589Z,12.73
2022-09-21T20:45:19.142Z,12.66
2022-09-21T20:47:50.040Z,12.54
2022-09-21T20:50:20.655Z,12.66
2022-09-21T20:52:50.685Z,12.68
2022-09-21T20:55:20.530Z,12.76
2022-09-21T20:57:53.227Z,12.78
2022-09-21T21:00:23.052Z,12.71
2022-09-21T21:02:53.315Z,12.68
2022-09-21T21:05:23.001Z,12.74
2022-09-21T21:07:53.171Z,12.69
2022-09-21T21:10:23.262Z,12.74
2022-09-21T21:12:54.537Z,12.62
2022-09-21T21:15:24.466Z,12.53
2022-09-21T21:17:54.512Z,12.54
2022-09-21T21:20:24.431Z,12.61
2022-09-21T21:22:54.828Z,12.72
2022-09-21T21:25:24.616Z,12.59
2022-09-21T21:27:59.206Z,12.62
2022-09-21T21:30:28.991Z,12.61
2022-09-21T21:32:59.065Z,12.67
2022-09-21T21:35:30.173Z,12.70
2022-09-21T21:37:59.962Z,12.61
2022-09-21T21:40:30.643Z,12.55
2022-09-21T21:43:03.874Z,12.62
2022-09-21T21:45:33.990Z,12.56
2022-09-21T21:48:04.806Z,12.64
2022-09-21T21:50:35.911Z,12.59
2022-09-21T21:53:06.616Z,12.66
2022-09-21T21:55:36.539Z,12.68
2022-09-21T21:58:07.807Z,12.63
2022-09-21T22:00:37.600Z,12.68
2022-09-21T22:03:07.346Z,12.67
2022-09-21T22:05:38.404Z,12.63
2022-09-21T22:08:08.495Z,12.48
2022-09-21T22:10:38.265Z,12.51
2022-09-21T22:13:12.703Z,12.43
2022-09-21T22:15:42.842Z,12.45
2022-09-21T22:18:12.767Z,12.48
2022-09-21T22:20:42.666Z,12.43
2022-09-21T22:23:12.368Z,12.31
2022-09-21T22:25:42.915Z,12.26
2022-09-21T22:28:14.215Z,12.43
2022-09-21T22:30:49.878Z,12.31
2022-09-21T22:33:19.639Z,12.27
2022-09-21T22:35:49.422Z,12.39
2022-09-21T22:38:19.186Z,12.38
2022-09-21T22:40:49.652Z,12.45
2022-09-21T22:43:20.995Z,12.41
2022-09-21T22:45:50.770Z,12.41
2022-09-21T22:48:20.588Z,12.51
2022-09-21T22:50:50.391Z,12.44
2022-09-21T22:53:20.522Z,12.47
2022-09-21T22:55:50.301Z,12.54
2022-09-21T22:58:21.472Z,12.38
2022-09-21T23:00:51.275Z,12.27
2022-09-21T23:03:21.009Z,12.38
2022-09-21T23:05:57.391Z,12.33
2022-09-21T23:08:28.138Z,12.38
2022-09-21T23:11:05.876Z,12.26
2022-09-21T23:13:37.249Z,12.35
2022-09-21T23:16:09.429Z,12.29
2022-09-21T23:18:40.775Z,12.12
2022-09-21T23:21:13.285Z,12.10
2022-09-21T23:23:43.638Z,12.15
2022-09-21T23:26:15.352Z,12.30
2022-09-21T23:28:52.623Z,12.10
2022-09-21T23:31:22.977Z,12.30
2022-09-21T23:33:54.375Z,12.31
2022-09-21T23:36:27.583Z,12.21
2022-09-21T23:38:58.059Z,12.11
2022-09-21T23:41:29.701Z,12.23
2022-09-21T23:44:01.611Z,12.26
2022-09-21T23:46:33.912Z,12.10
2022-09-21T23:49:04.246Z,12.28
2022-09-21T23:51:34.464Z,12.18
2022-09-21T23:54:04.856Z,12.22
2022-09-21T23:56:35.364Z,12.27
2022-09-21T23:59:06.991Z,12.27
